sensor_id;sensor_type;location;lat;lon;timestamp;temperature;humidity
15777;DHT22;7989;51.198;6.676;2022-10-13T00:01:25;10.60;99.90
15777;DHT22;7989;51.198;6.676;2022-10-13T00:03:53;10.60;99.90
15777;DHT22;7989;51.198;6.676;2022-10-13T00:06:22;10.60;99.90
15777;DHT22;7989;51.198;6.676;2022-10-13T00:08:49;10.60;99.90
15777;DHT22;7989;51.198;6.676;2022-10-13T00:11:18;10.60;99.90
15777;DHT22;7989;51.198;6.676;2022-10-13T00:13:46;10.70;99.90
15777;DHT22;7989;51.198;6.676;2022-10-13T00:16:14;10.60;99.90
15777;DHT22;7989;51.198;6.676;2022-10-13T00:18:42;10.60;99.90
15777;DHT22;7989;51.198;6.676;2022-10-13T00:21:12;10.60;99.90
15777;DHT22;7989;51.198;6.676;2022-10-13T00:23:39;10.60;99.90
15777;DHT22;7989;51.198;6.676;2022-10-13T00:26:08;10.60;99.90
15777;DHT22;7989;51.198;6.676;2022-10-13T00:28:36;10.60;99.90
15777;DHT22;7989;51.198;6.676;2022-10-13T00:31:03;10.60;99.90
15777;DHT22;7989;51.198;6.676;2022-10-13T00:33:39;10.50;99.90
15777;DHT22;7989;51.198;6.676;2022-10-13T00:36:06;10.50;99.90
15777;DHT22;7989;51.198;6.676;2022-10-13T00:38:34;10.50;99.90
15777;DHT22;7989;51.198;6.676;2022-10-13T00:41:01;10.50;99.90
15777;DHT22;7989;51.198;6.676;2022-10-13T00:43:47;10.40;99.90
15777;DHT22;7989;51.198;6.676;2022-10-13T00:46:15;10.40;99.90
15777;DHT22;7989;51.198;6.676;2022-10-13T00:48:42;10.40;99.90
15777;DHT22;7989;51.198;6.676;2022-10-13T00:51:12;10.40;99.90
15777;DHT22;7989;51.198;6.676;2022-10-13T00:53:42;10.40;99.90
15777;DHT22;7989;51.198;6.676;2022-10-13T00:56:12;10.40;99.90
15777;DHT22;7989;51.198;6.676;2022-10-13T00:58:41;10.40;99.90
15777;DHT22;7989;51.198;6.676;2022-10-13T01:01:09;10.40;99.90
15777;DHT22;7989;51.198;6.676;2022-10-13T01:03:36;10.40;99.90
15777;DHT22;7989;51.198;6.676;2022-10-13T01:06:05;10.30;99.90
15777;DHT22;7989;51.198;6.676;2022-10-13T01:08:32;10.30;99.90
15777;DHT22;7989;51.198;6.676;2022-10-13T01:11:11;10.30;99.90
15777;DHT22;7989;51.198;6.676;2022-10-13T01:13:47;10.30;99.90
15777;DHT22;7989;51.198;6.676;2022-10-13T01:16:23;10.30;99.90
15777;DHT22;7989;51.198;6.676;2022-10-13T01:18:58;10.30;99.90
15777;DHT22;7989;51.198;6.676;2022-10-13T01:21:32;10.30;99.90
15777;DHT22;7989;51.198;6.676;2022-10-13T01:24:31;10.40;99.90
15777;DHT22;7989;51.198;6.676;2022-10-13T01:30:13;10.40;99.90
15777;DHT22;7989;51.198;6.676;2022-10-13T01:32:59;10.30;99.90
15777;DHT22;7989;51.198;6.676;2022-10-13T01:35:36;10.40;99.90
15777;DHT22;7989;51.198;6.676;2022-10-13T01:38:08;10.40;99.90
15777;DHT22;7989;51.198;6.676;2022-10-13T01:40:39;10.50;99.90
15777;DHT22;7989;51.198;6.676;2022-10-13T01:43:12;10.50;99.90
15777;DHT22;7989;51.198;6.676;2022-10-13T01:45:46;10.50;99.90
15777;DHT22;7989;51.198;6.676;2022-10-13T01:48:15;10.50;99.90
15777;DHT22;7989;51.198;6.676;2022-10-13T01:50:43;10.50;99.90
15777;DHT22;7989;51.198;6.676;2022-10-13T01:53:11;10.60;99.90
15777;DHT22;7989;51.198;6.676;2022-10-13T01:55:48;10.60;99.90
15777;DHT22;7989;51.198;6.676;2022-10-13T01:58:15;10.60;99.90
15777;DHT22;7989;51.198;6.676;2022-10-13T02:00:49;10.60;99.90
15777;DHT22;7989;51.198;6.676;2022-10-13T02:03:20;10.60;99.90
15777;DHT22;7989;51.198;6.676;2022-10-13T02:05:54;10.60;99.90
15777;DHT22;7989;51.198;6.676;2022-10-13T02:08:26;10.60;99.90
15777;DHT22;7989;51.198;6.676;2022-10-13T02:11:00;10.70;99.90
15777;DHT22;7989;51.198;6.676;2022-10-13T02:13:32;10.60;99.90
15777;DHT22;7989;51.198;6.676;2022-10-13T02:16:02;10.70;99.90
15777;DHT22;7989;51.198;6.676;2022-10-13T02:18:31;10.70;99.90
15777;DHT22;7989;51.198;6.676;2022-10-13T02:20:59;10.70;99.90
15777;DHT22;7989;51.198;6.676;2022-10-13T02:23:26;10.70;99.90
15777;DHT22;7989;51.198;6.676;2022-10-13T02:25:55;10.70;99.90
15777;DHT22;7989;51.198;6.676;2022-10-13T02:28:23;10.70;99.90
15777;DHT22;7989;51.198;6.676;2022-10-13T02:30:49;10.70;99.90
15777;DHT22;7989;51.198;6.676;2022-10-13T02:33:18;10.70;99.90
15777;DHT22;7989;51.198;6.676;2022-10-13T02:35:44;10.70;99.90
15777;DHT22;7989;51.198;6.676;2022-10-13T02:38:11;10.60;99.90
15777;DHT22;7989;51.198;6.676;2022-10-13T02:40:38;10.60;99.90
15777;DHT22;7989;51.198;6.676;2022-10-13T02:43:05;10.70;99.90
15777;DHT22;7989;51.198;6.676;2022-10-13T02:45:31;10.70;99.90
15777;DHT22;7989;51.198;6.676;2022-10-13T02:47:58;10.60;99.90
15777;DHT22;7989;51.198;6.676;2022-10-13T02:50:26;10.70;99.90
15777;DHT22;7989;51.198;6.676;2022-10-13T02:52:53;10.70;99.90
15777;DHT22;7989;51.198;6.676;2022-10-13T02:55:20;10.80;99.90
15777;DHT22;7989;51.198;6.676;2022-10-13T02:57:47;10.70;99.90
15777;DHT22;7989;51.198;6.676;2022-10-13T03:00:15;10.80;99.90
15777;DHT22;7989;51.198;6.676;2022-10-13T03:02:42;10.80;99.90
15777;DHT22;7989;51.198;6.676;2022-10-13T03:05:08;10.80;99.90
15777;DHT22;7989;51.198;6.676;2022-10-13T03:07:37;10.80;99.90
15777;DHT22;7989;51.198;6.676;2022-10-13T03:10:04;10.80;99.90
15777;DHT22;7989;51.198;6.676;2022-10-13T03:12:31;10.80;99.90
15777;DHT22;7989;51.198;6.676;2022-10-13T03:14:58;10.80;99.90
15777;DHT22;7989;51.198;6.676;2022-10-13T03:17:25;10.80;99.90
15777;DHT22;7989;51.198;6.676;2022-10-13T03:19:51;10.80;99.90
15777;DHT22;7989;51.198;6.676;2022-10-13T03:22:18;10.80;99.90
15777;DHT22;7989;51.198;6.676;2022-10-13T03:24:47;10.80;99.90
15777;DHT22;7989;51.198;6.676;2022-10-13T03:27:13;10.80;99.90
15777;DHT22;7989;51.198;6.676;2022-10-13T03:29:41;10.80;99.90
15777;DHT22;7989;51.198;6.676;2022-10-13T03:32:08;10.80;99.90
15777;DHT22;7989;51.198;6.676;2022-10-13T03:34:35;10.80;99.90
15777;DHT22;7989;51.198;6.676;2022-10-13T03:37:01;10.80;99.90
15777;DHT22;7989;51.198;6.676;2022-10-13T03:39:28;10.80;99.90
15777;DHT22;7989;51.198;6.676;2022-10-13T03:41:56;10.80;99.90
15777;DHT22;7989;51.198;6.676;2022-10-13T03:44:23;10.80;99.90
15777;DHT22;7989;51.198;6.676;2022-10-13T03:46:50;10.80;99.90
15777;DHT22;7989;51.198;6.676;2022-10-13T03:49:17;10.80;99.90
15777;DHT22;7989;51.198;6.676;2022-10-13T03:51:44;10.80;99.90
15777;DHT22;7989;51.198;6.676;2022-10-13T03:54:11;10.80;99.90
15777;DHT22;7989;51.198;6.676;2022-10-13T03:56:39;10.80;99.90
15777;DHT22;7989;51.198;6.676;2022-10-13T03:59:10;10.80;99.90
15777;DHT22;7989;51.198;6.676;2022-10-13T04:01:38;10.80;99.90
15777;DHT22;7989;51.198;6.676;2022-10-13T04:04:05;10.80;99.90
15777;DHT22;7989;51.198;6.676;2022-10-13T04:06:32;10.80;99.90
15777;DHT22;7989;51.198;6.676;2022-10-13T04:08:59;10.80;99.90
15777;DHT22;7989;51.198;6.676;2022-10-13T04:11:25;10.80;99.90
15777;DHT22;7989;51.198;6.676;2022-10-13T04:13:52;10.80;99.90
15777;DHT22;7989;51.198;6.676;2022-10-13T04:16:24;10.80;99.90
15777;DHT22;7989;51.198;6.676;2022-10-13T04:18:53;10.80;99.90
15777;DHT22;7989;51.198;6.676;2022-10-13T04:21:21;10.80;99.90
15777;DHT22;7989;51.198;6.676;2022-10-13T04:23:48;10.80;99.90
15777;DHT22;7989;51.198;6.676;2022-10-13T04:26:16;10.80;99.90
15777;DHT22;7989;51.198;6.676;2022-10-13T04:28:43;10.80;99.90
15777;DHT22;7989;51.198;6.676;2022-10-13T04:31:10;10.80;99.90
15777;DHT22;7989;51.198;6.676;2022-10-13T04:33:39;10.80;99.90
15777;DHT22;7989;51.198;6.676;2022-10-13T04:36:07;10.80;99.90
15777;DHT22;7989;51.198;6.676;2022-10-13T04:38:34;10.90;99.90
15777;DHT22;7989;51.198;6.676;2022-10-13T04:41:02;10.80;99.90
15777;DHT22;7989;51.198;6.676;2022-10-13T04:43:29;10.90;99.90
15777;DHT22;7989;51.198;6.676;2022-10-13T04:45:59;10.90;99.90
15777;DHT22;7989;51.198;6.676;2022-10-13T04:48:26;10.80;99.90
15777;DHT22;7989;51.198;6.676;2022-10-13T04:50:59;10.80;99.90
15777;DHT22;7989;51.198;6.676;2022-10-13T04:53:26;10.80;99.90
15777;DHT22;7989;51.198;6.676;2022-10-13T04:55:53;10.90;99.90
15777;DHT22;7989;51.198;6.676;2022-10-13T04:58:21;10.90;99.90
15777;DHT22;7989;51.198;6.676;2022-10-13T05:00:48;10.90;99.90
15777;DHT22;7989;51.198;6.676;2022-10-13T05:03:14;10.90;99.90
15777;DHT22;7989;51.198;6.676;2022-10-13T05:05:41;10.90;99.90
15777;DHT22;7989;51.198;6.676;2022-10-13T05:08:09;10.90;99.90
15777;DHT22;7989;51.198;6.676;2022-10-13T05:10:36;10.90;99.90
15777;DHT22;7989;51.198;6.676;2022-10-13T05:13:03;10.90;99.90
15777;DHT22;7989;51.198;6.676;2022-10-13T05:15:30;10.90;99.90
15777;DHT22;7989;51.198;6.676;2022-10-13T05:17:57;10.90;99.90
15777;DHT22;7989;51.198;6.676;2022-10-13T05:20:25;10.90;99.90
15777;DHT22;7989;51.198;6.676;2022-10-13T05:22:52;10.90;99.90
15777;DHT22;7989;51.198;6.676;2022-10-13T05:25:20;10.90;99.90
15777;DHT22;7989;51.198;6.676;2022-10-13T05:27:47;10.90;99.90
15777;DHT22;7989;51.198;6.676;2022-10-13T05:30:14;10.90;99.90
15777;DHT22;7989;51.198;6.676;2022-10-13T05:32:40;10.90;99.90
15777;DHT22;7989;51.198;6.676;2022-10-13T05:35:08;10.90;99.90
15777;DHT22;7989;51.198;6.676;2022-10-13T05:37:34;10.90;99.90
15777;DHT22;7989;51.198;6.676;2022-10-13T05:40:01;10.90;99.90
15777;DHT22;7989;51.198;6.676;2022-10-13T05:42:30;10.90;99.90
15777;DHT22;7989;51.198;6.676;2022-10-13T05:44:57;10.90;99.90
15777;DHT22;7989;51.198;6.676;2022-10-13T05:47:23;10.90;99.90
15777;DHT22;7989;51.198;6.676;2022-10-13T05:49:52;10.90;99.90
15777;DHT22;7989;51.198;6.676;2022-10-13T05:52:20;10.90;99.90
15777;DHT22;7989;51.198;6.676;2022-10-13T05:54:52;10.90;99.90
15777;DHT22;7989;51.198;6.676;2022-10-13T05:57:22;10.90;99.90
15777;DHT22;7989;51.198;6.676;2022-10-13T05:59:54;10.90;99.90
15777;DHT22;7989;51.198;6.676;2022-10-13T06:02:25;10.90;99.90
15777;DHT22;7989;51.198;6.676;2022-10-13T06:04:54;10.90;99.90
15777;DHT22;7989;51.198;6.676;2022-10-13T06:07:23;10.90;99.90
15777;DHT22;7989;51.198;6.676;2022-10-13T06:09:50;10.90;99.90
15777;DHT22;7989;51.198;6.676;2022-10-13T06:12:17;10.80;99.90
15777;DHT22;7989;51.198;6.676;2022-10-13T06:14:44;10.80;99.90
15777;DHT22;7989;51.198;6.676;2022-10-13T06:17:12;10.80;99.90
15777;DHT22;7989;51.198;6.676;2022-10-13T06:19:40;10.80;99.90
15777;DHT22;7989;51.198;6.676;2022-10-13T06:22:07;10.80;99.90
15777;DHT22;7989;51.198;6.676;2022-10-13T06:24:34;10.80;99.90
15777;DHT22;7989;51.198;6.676;2022-10-13T06:27:01;10.80;99.90
15777;DHT22;7989;51.198;6.676;2022-10-13T06:29:27;10.80;99.90
15777;DHT22;7989;51.198;6.676;2022-10-13T06:31:54;10.80;99.90
15777;DHT22;7989;51.198;6.676;2022-10-13T06:34:22;10.80;99.90
15777;DHT22;7989;51.198;6.676;2022-10-13T06:36:49;10.90;99.90
15777;DHT22;7989;51.198;6.676;2022-10-13T06:39:16;10.90;99.90
15777;DHT22;7989;51.198;6.676;2022-10-13T06:41:43;10.90;99.90
15777;DHT22;7989;51.198;6.676;2022-10-13T06:44:10;10.90;99.90
15777;DHT22;7989;51.198;6.676;2022-10-13T06:46:37;11.00;99.90
15777;DHT22;7989;51.198;6.676;2022-10-13T06:49:03;11.00;99.90
15777;DHT22;7989;51.198;6.676;2022-10-13T06:51:31;11.00;99.90
15777;DHT22;7989;51.198;6.676;2022-10-13T06:53:58;11.00;99.90
15777;DHT22;7989;51.198;6.676;2022-10-13T06:56:25;11.10;99.90
15777;DHT22;7989;51.198;6.676;2022-10-13T06:58:52;11.10;99.90
15777;DHT22;7989;51.198;6.676;2022-10-13T07:01:19;11.10;99.90
15777;DHT22;7989;51.198;6.676;2022-10-13T07:03:47;11.20;99.90
15777;DHT22;7989;51.198;6.676;2022-10-13T07:06:14;11.20;99.90
15777;DHT22;7989;51.198;6.676;2022-10-13T07:08:43;11.30;99.90
15777;DHT22;7989;51.198;6.676;2022-10-13T07:11:11;11.30;99.90
15777;DHT22;7989;51.198;6.676;2022-10-13T07:13:38;11.40;99.90
15777;DHT22;7989;51.198;6.676;2022-10-13T07:16:06;11.40;99.90
15777;DHT22;7989;51.198;6.676;2022-10-13T07:18:34;11.40;99.90
15777;DHT22;7989;51.198;6.676;2022-10-13T07:21:01;11.50;99.90
15777;DHT22;7989;51.198;6.676;2022-10-13T07:23:29;11.60;99.90
15777;DHT22;7989;51.198;6.676;2022-10-13T07:25:57;11.60;99.90
15777;DHT22;7989;51.198;6.676;2022-10-13T07:28:25;11.60;99.90
15777;DHT22;7989;51.198;6.676;2022-10-13T07:30:53;11.70;99.90
15777;DHT22;7989;51.198;6.676;2022-10-13T07:33:20;11.80;99.90
15777;DHT22;7989;51.198;6.676;2022-10-13T07:35:47;11.80;99.90
15777;DHT22;7989;51.198;6.676;2022-10-13T07:38:13;11.90;99.90
15777;DHT22;7989;51.198;6.676;2022-10-13T07:40:40;12.00;99.90
15777;DHT22;7989;51.198;6.676;2022-10-13T07:43:09;12.10;99.90
15777;DHT22;7989;51.198;6.676;2022-10-13T07:45:35;12.20;99.90
15777;DHT22;7989;51.198;6.676;2022-10-13T07:48:03;12.30;99.90
15777;DHT22;7989;51.198;6.676;2022-10-13T07:50:29;12.40;99.90
15777;DHT22;7989;51.198;6.676;2022-10-13T07:52:56;12.50;99.90
15777;DHT22;7989;51.198;6.676;2022-10-13T07:55:23;12.60;99.90
15777;DHT22;7989;51.198;6.676;2022-10-13T07:57:50;12.80;99.90
15777;DHT22;7989;51.198;6.676;2022-10-13T08:00:18;12.90;99.90
15777;DHT22;7989;51.198;6.676;2022-10-13T08:02:48;13.20;99.90
15777;DHT22;7989;51.198;6.676;2022-10-13T08:05:16;13.30;99.90
15777;DHT22;7989;51.198;6.676;2022-10-13T08:07:43;13.20;99.90
15777;DHT22;7989;51.198;6.676;2022-10-13T08:10:10;13.10;99.90
15777;DHT22;7989;51.198;6.676;2022-10-13T08:12:37;13.00;99.90
15777;DHT22;7989;51.198;6.676;2022-10-13T08:15:05;12.90;99.90
15777;DHT22;7989;51.198;6.676;2022-10-13T08:17:33;12.80;99.90
15777;DHT22;7989;51.198;6.676;2022-10-13T08:20:00;12.70;99.90
15777;DHT22;7989;51.198;6.676;2022-10-13T08:22:27;12.70;99.90
15777;DHT22;7989;51.198;6.676;2022-10-13T08:24:54;12.70;99.90
15777;DHT22;7989;51.198;6.676;2022-10-13T08:27:23;12.80;99.90
15777;DHT22;7989;51.198;6.676;2022-10-13T08:29:50;12.80;99.90
15777;DHT22;7989;51.198;6.676;2022-10-13T08:32:19;12.90;99.90
15777;DHT22;7989;51.198;6.676;2022-10-13T08:34:47;13.00;99.90
15777;DHT22;7989;51.198;6.676;2022-10-13T08:37:16;13.10;99.90
15777;DHT22;7989;51.198;6.676;2022-10-13T08:39:43;13.20;99.90
15777;DHT22;7989;51.198;6.676;2022-10-13T08:42:13;13.20;99.90
15777;DHT22;7989;51.198;6.676;2022-10-13T08:44:44;13.30;99.90
15777;DHT22;7989;51.198;6.676;2022-10-13T08:47:18;13.30;99.90
15777;DHT22;7989;51.198;6.676;2022-10-13T08:49:48;13.30;99.90
15777;DHT22;7989;51.198;6.676;2022-10-13T08:52:17;13.30;99.90
15777;DHT22;7989;51.198;6.676;2022-10-13T08:54:44;13.40;99.90
15777;DHT22;7989;51.198;6.676;2022-10-13T08:57:12;13.40;99.90
15777;DHT22;7989;51.198;6.676;2022-10-13T08:59:39;13.40;99.90
15777;DHT22;7989;51.198;6.676;2022-10-13T09:02:11;13.50;99.90
15777;DHT22;7989;51.198;6.676;2022-10-13T09:04:41;13.60;99.90
15777;DHT22;7989;51.198;6.676;2022-10-13T09:07:15;13.80;99.90
15777;DHT22;7989;51.198;6.676;2022-10-13T09:09:42;14.00;99.90
15777;DHT22;7989;51.198;6.676;2022-10-13T09:12:10;14.20;99.90
15777;DHT22;7989;51.198;6.676;2022-10-13T09:14:39;14.20;99.90
15777;DHT22;7989;51.198;6.676;2022-10-13T09:17:15;14.30;99.90
15777;DHT22;7989;51.198;6.676;2022-10-13T09:19:42;14.20;99.90
15777;DHT22;7989;51.198;6.676;2022-10-13T09:22:18;14.20;99.90
15777;DHT22;7989;51.198;6.676;2022-10-13T09:24:46;14.30;99.90
15777;DHT22;7989;51.198;6.676;2022-10-13T09:27:17;14.70;99.90
15777;DHT22;7989;51.198;6.676;2022-10-13T09:29:44;15.70;99.90
15777;DHT22;7989;51.198;6.676;2022-10-13T09:32:17;15.80;99.90
15777;DHT22;7989;51.198;6.676;2022-10-13T09:34:44;15.60;99.90
15777;DHT22;7989;51.198;6.676;2022-10-13T09:37:20;15.60;99.90
15777;DHT22;7989;51.198;6.676;2022-10-13T09:39:59;15.70;99.90
15777;DHT22;7989;51.198;6.676;2022-10-13T09:42:29;15.70;99.90
15777;DHT22;7989;51.198;6.676;2022-10-13T09:44:58;15.70;99.90
15777;DHT22;7989;51.198;6.676;2022-10-13T09:47:27;15.80;99.90
15777;DHT22;7989;51.198;6.676;2022-10-13T09:50:01;15.80;99.90
15777;DHT22;7989;51.198;6.676;2022-10-13T09:52:29;15.70;99.90
15777;DHT22;7989;51.198;6.676;2022-10-13T09:54:58;15.60;99.90
15777;DHT22;7989;51.198;6.676;2022-10-13T09:57:33;15.70;99.90
15777;DHT22;7989;51.198;6.676;2022-10-13T10:00:11;15.50;99.90
15777;DHT22;7989;51.198;6.676;2022-10-13T10:02:44;15.50;99.90
15777;DHT22;7989;51.198;6.676;2022-10-13T10:05:20;15.50;99.90
15777;DHT22;7989;51.198;6.676;2022-10-13T10:07:50;15.50;99.90
15777;DHT22;7989;51.198;6.676;2022-10-13T10:10:31;15.50;99.90
15777;DHT22;7989;51.198;6.676;2022-10-13T10:13:00;15.60;99.90
15777;DHT22;7989;51.198;6.676;2022-10-13T10:15:35;15.60;99.90
15777;DHT22;7989;51.198;6.676;2022-10-13T10:18:06;15.70;99.90
15777;DHT22;7989;51.198;6.676;2022-10-13T10:20:49;15.80;99.90
15777;DHT22;7989;51.198;6.676;2022-10-13T10:23:30;15.90;99.90
15777;DHT22;7989;51.198;6.676;2022-10-13T10:26:01;16.10;99.90
15777;DHT22;7989;51.198;6.676;2022-10-13T10:29:00;16.20;99.90
15777;DHT22;7989;51.198;6.676;2022-10-13T10:31:37;16.40;99.90
15777;DHT22;7989;51.198;6.676;2022-10-13T10:34:26;17.00;99.90
15777;DHT22;7989;51.198;6.676;2022-10-13T10:37:03;17.20;99.90
15777;DHT22;7989;51.198;6.676;2022-10-13T10:39:37;17.20;99.90
15777;DHT22;7989;51.198;6.676;2022-10-13T10:42:15;17.30;99.90
15777;DHT22;7989;51.198;6.676;2022-10-13T10:44:46;17.60;99.90
15777;DHT22;7989;51.198;6.676;2022-10-13T10:47:22;17.40;99.90
15777;DHT22;7989;51.198;6.676;2022-10-13T10:49:51;17.30;99.90
15777;DHT22;7989;51.198;6.676;2022-10-13T10:52:23;17.20;99.90
15777;DHT22;7989;51.198;6.676;2022-10-13T10:54:58;17.20;99.90
15777;DHT22;7989;51.198;6.676;2022-10-13T10:57:35;17.10;99.90
15777;DHT22;7989;51.198;6.676;2022-10-13T11:00:07;17.10;99.90
15777;DHT22;7989;51.198;6.676;2022-10-13T11:02:42;17.10;99.90
15777;DHT22;7989;51.198;6.676;2022-10-13T11:05:11;17.10;99.90
15777;DHT22;7989;51.198;6.676;2022-10-13T11:07:58;17.10;99.90
15777;DHT22;7989;51.198;6.676;2022-10-13T11:10:27;17.00;99.90
15777;DHT22;7989;51.198;6.676;2022-10-13T11:13:21;17.10;99.90
15777;DHT22;7989;51.198;6.676;2022-10-13T11:15:50;17.00;99.90
15777;DHT22;7989;51.198;6.676;2022-10-13T11:22:09;16.90;99.90
15777;DHT22;7989;51.198;6.676;2022-10-13T11:24:59;16.80;99.90
15777;DHT22;7989;51.198;6.676;2022-10-13T11:27:43;16.80;99.90
15777;DHT22;7989;51.198;6.676;2022-10-13T11:30:45;16.70;99.90
15777;DHT22;7989;51.198;6.676;2022-10-13T11:33:52;16.60;99.90
15777;DHT22;7989;51.198;6.676;2022-10-13T11:36:31;16.50;99.90
15777;DHT22;7989;51.198;6.676;2022-10-13T11:39:10;16.50;99.90
15777;DHT22;7989;51.198;6.676;2022-10-13T11:41:48;16.30;99.90
15777;DHT22;7989;51.198;6.676;2022-10-13T11:44:23;16.30;99.90
15777;DHT22;7989;51.198;6.676;2022-10-13T11:47:00;16.20;99.90
15777;DHT22;7989;51.198;6.676;2022-10-13T11:49:48;16.10;99.90
15777;DHT22;7989;51.198;6.676;2022-10-13T11:52:30;16.10;99.90
15777;DHT22;7989;51.198;6.676;2022-10-13T11:55:02;16.00;99.90
15777;DHT22;7989;51.198;6.676;2022-10-13T11:57:30;15.90;99.90
15777;DHT22;7989;51.198;6.676;2022-10-13T11:59:59;15.80;99.90
15777;DHT22;7989;51.198;6.676;2022-10-13T12:02:27;15.80;99.90
15777;DHT22;7989;51.198;6.676;2022-10-13T12:05:02;15.70;99.90
15777;DHT22;7989;51.198;6.676;2022-10-13T12:07:32;15.70;99.90
15777;DHT22;7989;51.198;6.676;2022-10-13T12:10:01;15.70;99.90
15777;DHT22;7989;51.198;6.676;2022-10-13T12:12:29;15.70;99.90
15777;DHT22;7989;51.198;6.676;2022-10-13T12:14:56;15.70;99.90
15777;DHT22;7989;51.198;6.676;2022-10-13T12:17:28;15.70;99.90
15777;DHT22;7989;51.198;6.676;2022-10-13T12:19:57;15.70;99.90
15777;DHT22;7989;51.198;6.676;2022-10-13T12:22:25;15.70;99.90
15777;DHT22;7989;51.198;6.676;2022-10-13T12:24:57;15.70;99.90
15777;DHT22;7989;51.198;6.676;2022-10-13T12:27:25;15.70;99.90
15777;DHT22;7989;51.198;6.676;2022-10-13T12:29:52;15.60;99.90
15777;DHT22;7989;51.198;6.676;2022-10-13T12:32:21;15.70;99.90
15777;DHT22;7989;51.198;6.676;2022-10-13T12:34:50;15.80;99.90
15777;DHT22;7989;51.198;6.676;2022-10-13T12:37:24;15.90;99.90
15777;DHT22;7989;51.198;6.676;2022-10-13T12:39:52;16.10;99.90
15777;DHT22;7989;51.198;6.676;2022-10-13T12:42:23;16.20;99.90
15777;DHT22;7989;51.198;6.676;2022-10-13T12:44:51;16.30;99.90
15777;DHT22;7989;51.198;6.676;2022-10-13T12:47:45;16.20;99.90
15777;DHT22;7989;51.198;6.676;2022-10-13T12:50:38;16.20;99.90
15777;DHT22;7989;51.198;6.676;2022-10-13T12:53:11;16.20;99.90
15777;DHT22;7989;51.198;6.676;2022-10-13T12:55:49;16.10;99.90
15777;DHT22;7989;51.198;6.676;2022-10-13T12:58:20;16.00;99.90
15777;DHT22;7989;51.198;6.676;2022-10-13T13:01:04;16.00;99.90
15777;DHT22;7989;51.198;6.676;2022-10-13T13:03:32;16.00;99.90
15777;DHT22;7989;51.198;6.676;2022-10-13T13:06:18;15.90;99.90
15777;DHT22;7989;51.198;6.676;2022-10-13T13:08:46;15.90;99.90
15777;DHT22;7989;51.198;6.676;2022-10-13T13:11:21;16.00;99.90
15777;DHT22;7989;51.198;6.676;2022-10-13T13:13:48;16.00;99.90
15777;DHT22;7989;51.198;6.676;2022-10-13T13:16:16;16.00;99.90
15777;DHT22;7989;51.198;6.676;2022-10-13T13:18:44;16.10;99.90
15777;DHT22;7989;51.198;6.676;2022-10-13T13:21:15;16.10;99.90
15777;DHT22;7989;51.198;6.676;2022-10-13T13:23:43;16.20;99.90
15777;DHT22;7989;51.198;6.676;2022-10-13T13:26:12;16.20;99.90
15777;DHT22;7989;51.198;6.676;2022-10-13T13:28:43;16.20;99.90
15777;DHT22;7989;51.198;6.676;2022-10-13T13:31:11;16.20;99.90
15777;DHT22;7989;51.198;6.676;2022-10-13T13:33:38;16.20;99.90
15777;DHT22;7989;51.198;6.676;2022-10-13T13:36:14;16.10;99.90
15777;DHT22;7989;51.198;6.676;2022-10-13T13:38:41;16.10;99.90
15777;DHT22;7989;51.198;6.676;2022-10-13T13:41:09;16.00;99.90
15777;DHT22;7989;51.198;6.676;2022-10-13T13:43:36;16.00;99.90
15777;DHT22;7989;51.198;6.676;2022-10-13T13:46:04;16.00;99.90
15777;DHT22;7989;51.198;6.676;2022-10-13T13:48:31;15.90;99.90
15777;DHT22;7989;51.198;6.676;2022-10-13T13:50:58;15.90;99.90
15777;DHT22;7989;51.198;6.676;2022-10-13T13:53:26;15.90;99.90
15777;DHT22;7989;51.198;6.676;2022-10-13T13:55:53;15.80;99.90
15777;DHT22;7989;51.198;6.676;2022-10-13T13:58:20;15.80;99.90
15777;DHT22;7989;51.198;6.676;2022-10-13T14:00:47;15.70;99.90
15777;DHT22;7989;51.198;6.676;2022-10-13T14:03:14;15.70;99.90
15777;DHT22;7989;51.198;6.676;2022-10-13T14:05:41;15.60;99.90
15777;DHT22;7989;51.198;6.676;2022-10-13T14:08:08;15.60;99.90
15777;DHT22;7989;51.198;6.676;2022-10-13T14:10:38;15.60;99.90
15777;DHT22;7989;51.198;6.676;2022-10-13T14:13:05;15.60;99.90
15777;DHT22;7989;51.198;6.676;2022-10-13T14:15:32;15.60;99.90
15777;DHT22;7989;51.198;6.676;2022-10-13T14:17:59;15.60;99.90
15777;DHT22;7989;51.198;6.676;2022-10-13T14:20:25;15.50;99.90
15777;DHT22;7989;51.198;6.676;2022-10-13T14:22:52;15.50;99.90
15777;DHT22;7989;51.198;6.676;2022-10-13T14:25:19;15.50;99.90
15777;DHT22;7989;51.198;6.676;2022-10-13T14:27:47;15.40;99.90
15777;DHT22;7989;51.198;6.676;2022-10-13T14:30:15;15.40;99.90
15777;DHT22;7989;51.198;6.676;2022-10-13T14:32:42;15.50;99.90
15777;DHT22;7989;51.198;6.676;2022-10-13T14:35:09;15.50;99.90
15777;DHT22;7989;51.198;6.676;2022-10-13T14:37:35;15.60;99.90
15777;DHT22;7989;51.198;6.676;2022-10-13T14:40:03;15.60;99.90
15777;DHT22;7989;51.198;6.676;2022-10-13T14:42:30;15.60;99.90
15777;DHT22;7989;51.198;6.676;2022-10-13T14:44:58;15.60;99.90
15777;DHT22;7989;51.198;6.676;2022-10-13T14:47:25;15.60;99.90
15777;DHT22;7989;51.198;6.676;2022-10-13T14:49:52;15.60;99.90
15777;DHT22;7989;51.198;6.676;2022-10-13T14:52:19;15.60;99.90
15777;DHT22;7989;51.198;6.676;2022-10-13T14:54:46;15.60;99.90
15777;DHT22;7989;51.198;6.676;2022-10-13T14:57:12;15.50;99.90
15777;DHT22;7989;51.198;6.676;2022-10-13T14:59:40;15.50;99.90
15777;DHT22;7989;51.198;6.676;2022-10-13T15:02:09;15.50;99.90
15777;DHT22;7989;51.198;6.676;2022-10-13T15:04:37;15.50;99.90
15777;DHT22;7989;51.198;6.676;2022-10-13T15:07:04;15.40;99.90
15777;DHT22;7989;51.198;6.676;2022-10-13T15:09:31;15.40;99.90
15777;DHT22;7989;51.198;6.676;2022-10-13T15:11:58;15.40;99.90
15777;DHT22;7989;51.198;6.676;2022-10-13T15:14:25;15.30;99.90
15777;DHT22;7989;51.198;6.676;2022-10-13T15:16:51;15.30;99.90
15777;DHT22;7989;51.198;6.676;2022-10-13T15:19:20;15.30;99.90
15777;DHT22;7989;51.198;6.676;2022-10-13T15:21:46;15.20;99.90
15777;DHT22;7989;51.198;6.676;2022-10-13T15:24:13;15.20;99.90
15777;DHT22;7989;51.198;6.676;2022-10-13T15:26:40;15.20;99.90
15777;DHT22;7989;51.198;6.676;2022-10-13T15:29:07;15.10;99.90
15777;DHT22;7989;51.198;6.676;2022-10-13T15:31:34;15.10;99.90
15777;DHT22;7989;51.198;6.676;2022-10-13T15:34:01;15.10;99.90
15777;DHT22;7989;51.198;6.676;2022-10-13T15:36:29;15.10;99.90
15777;DHT22;7989;51.198;6.676;2022-10-13T15:38:56;15.10;99.90
15777;DHT22;7989;51.198;6.676;2022-10-13T15:41:23;15.00;99.90
15777;DHT22;7989;51.198;6.676;2022-10-13T15:43:51;15.00;99.90
15777;DHT22;7989;51.198;6.676;2022-10-13T15:46:18;15.00;99.90
15777;DHT22;7989;51.198;6.676;2022-10-13T15:48:49;15.00;99.90
15777;DHT22;7989;51.198;6.676;2022-10-13T15:51:17;15.00;99.90
15777;DHT22;7989;51.198;6.676;2022-10-13T15:53:46;15.00;99.90
15777;DHT22;7989;51.198;6.676;2022-10-13T15:56:14;15.00;99.90
15777;DHT22;7989;51.198;6.676;2022-10-13T15:58:40;15.00;99.90
15777;DHT22;7989;51.198;6.676;2022-10-13T16:01:08;14.90;99.90
15777;DHT22;7989;51.198;6.676;2022-10-13T16:03:35;15.00;99.90
15777;DHT22;7989;51.198;6.676;2022-10-13T16:06:02;14.90;99.90
15777;DHT22;7989;51.198;6.676;2022-10-13T16:08:29;14.90;99.90